Portada
METAR-TAF:

METAR-TAF

Aeroports :

Weno, Micronèsia

latitud: 07-28N, longitud: 151-51E, altitud: 3 m

Observació

L'informe es va fer fa 54 minuts, a les 21:52 UTC
Vent 8 kt del Nord-Est
Temperatura 30°C
Humitat 79%
Pressió 1011 hPa
Visibilitat: 24.1 km
Escasses núvols a una alçada de 1400 ft
Núvols disperses a una alçada de 12000 ft
Cel ennuvolat a una alçada de 28000 ft

METAR: PTKK 042152Z 04008KT 15SM FEW014 SCT120 BKN280 30/26 A2985 RMK SLP110 T02980256

Hora: 08:46 (22:46 UTC)

Pronòstic

L'informe es va fer fa 5 hores i 14 minuts, a les 17:32 UTC
Pronòstic vàlid del 04 a les 18 UTC al 05 a les 18 UTC
Vent 7 kt del Est
Visibilitat: 10 km
Núvols disperses a una alçada de 1400 ft
Cel ennuvolat a una alçada de 12000 ft
xàfecs en les proximitats

TAF: PTKK 041732Z 0418/0518 08007KT P6SM VCSH SCT014 BKN120

Observacions i pronòstics meteorològics de més de 4000 aeroports (METAR i TAF).

Les estacions disponibles són els punts grocs i vermells al mapa.

Posi el ratolí al punt desitjat per veure el nom de l'estació.

Feu clic per veure les observacions i els pronòstics meteorològics.

Per canviar el mapa: feu clic els botons verds amb una creu de color negre per apropar; al botó verd amb un guió per allunyar la imatge; o en les fletxes verdes per a mapes adjacents.


METAR-TAF: